createdAt,value
2022-12-09T00:00:03.861Z,73.07
2022-12-09T00:02:31.492Z,79.90
2022-12-09T00:04:58.881Z,69.87
2022-12-09T00:07:26.056Z,70.53
2022-12-09T00:09:53.168Z,72.33
2022-12-09T00:12:20.318Z,66.73
2022-12-09T00:14:47.523Z,72.17
2022-12-09T00:17:14.892Z,73.93
2022-12-09T00:19:42.339Z,72.60
2022-12-09T00:22:09.641Z,59.57
2022-12-09T00:24:36.873Z,61.10
2022-12-09T00:27:04.280Z,51.33
2022-12-09T00:29:31.573Z,44.97
2022-12-09T00:31:58.705Z,40.47
2022-12-09T00:34:26.029Z,39.60
2022-12-09T00:36:53.366Z,38.50
2022-12-09T00:39:20.504Z,38.30
2022-12-09T00:41:49.236Z,24.53
2022-12-09T00:44:16.365Z,20.80
2022-12-09T00:46:43.575Z,20.03
2022-12-09T00:49:11.095Z,20.70
2022-12-09T00:51:38.187Z,48.00
2022-12-09T00:54:05.341Z,52.60
2022-12-09T00:56:32.778Z,65.33
2022-12-09T00:59:00.085Z,57.23
2022-12-09T01:01:27.622Z,37.07
2022-12-09T01:03:55.365Z,37.20
2022-12-09T01:06:23.779Z,35.10
2022-12-09T01:08:51.033Z,30.67
2022-12-09T01:11:20.432Z,31.03
2022-12-09T01:13:47.834Z,31.50
2022-12-09T01:16:15.896Z,32.00
2022-12-09T01:18:43.045Z,29.23
2022-12-09T01:21:10.149Z,27.63
2022-12-09T01:23:37.665Z,32.50
2022-12-09T01:26:05.596Z,29.17
2022-12-09T01:28:33.047Z,28.80
2022-12-09T01:31:10.814Z,27.23
2022-12-09T01:33:38.291Z,25.47
2022-12-09T01:36:06.776Z,29.07
2022-12-09T01:38:34.233Z,21.40
2022-12-09T01:41:01.562Z,24.80
2022-12-09T01:43:28.769Z,25.60
2022-12-09T01:45:56.035Z,31.57
2022-12-09T01:48:24.594Z,27.53
2022-12-09T01:50:51.748Z,25.23
2022-12-09T01:53:19.111Z,29.07
2022-12-09T01:55:46.402Z,31.23
2022-12-09T01:58:13.618Z,29.00
2022-12-09T02:00:40.753Z,27.13
2022-12-09T02:03:08.551Z,27.53
2022-12-09T02:05:35.864Z,28.80
2022-12-09T02:08:03.390Z,29.83
2022-12-09T02:10:30.552Z,33.60
2022-12-09T02:13:06.913Z,46.97
2022-12-09T02:15:44.661Z,43.90
2022-12-09T02:18:15.087Z,35.73
2022-12-09T02:20:42.985Z,32.20
2022-12-09T02:23:20.561Z,33.60
2022-12-09T02:25:48.744Z,34.50
2022-12-09T02:28:25.356Z,32.50
2022-12-09T02:31:11.235Z,34.13
2022-12-09T02:33:56.956Z,38.43
2022-12-09T02:36:24.584Z,43.17
2022-12-09T02:38:51.692Z,34.37
2022-12-09T02:41:26.874Z,31.13
2022-12-09T02:43:55.057Z,34.27
2022-12-09T02:46:22.572Z,35.17
2022-12-09T02:48:52.223Z,35.47
2022-12-09T02:51:20.098Z,32.23
2022-12-09T02:53:47.783Z,35.50
2022-12-09T02:56:15.647Z,44.70
2022-12-09T02:58:42.809Z,43.07
2022-12-09T03:01:29.471Z,46.33
2022-12-09T03:03:56.720Z,53.63
2022-12-09T03:06:25.567Z,44.10
2022-12-09T03:08:53.233Z,48.53
2022-12-09T03:11:20.864Z,46.73
2022-12-09T03:14:03.420Z,47.87
2022-12-09T03:16:46.046Z,47.73
2022-12-09T03:19:21.459Z,44.37
2022-12-09T03:21:48.907Z,45.07
2022-12-09T03:24:17.707Z,44.13
2022-12-09T03:26:45.091Z,40.37
2022-12-09T03:29:14.283Z,44.77
2022-12-09T03:31:41.429Z,44.07
2022-12-09T03:34:09.136Z,48.37
2022-12-09T03:36:39.755Z,40.87
2022-12-09T03:39:07.616Z,38.83
2022-12-09T03:41:34.924Z,41.10
2022-12-09T03:44:04.783Z,39.80
2022-12-09T03:46:32.243Z,41.23
2022-12-09T03:48:59.767Z,42.73
2022-12-09T03:51:41.112Z,42.70
2022-12-09T03:54:24.439Z,41.57
2022-12-09T03:56:53.416Z,39.37
2022-12-09T03:59:20.577Z,41.77
2022-12-09T04:01:47.816Z,44.27
2022-12-09T04:04:15.180Z,43.40
2022-12-09T04:06:42.384Z,43.77
2022-12-09T04:09:11.345Z,41.90
2022-12-09T04:11:38.540Z,41.43
2022-12-09T04:14:09.148Z,47.13
2022-12-09T04:16:39.514Z,38.37
2022-12-09T04:19:06.620Z,40.00
2022-12-09T04:21:33.741Z,44.17
2022-12-09T04:24:00.910Z,39.57
2022-12-09T04:26:28.149Z,38.83
2022-12-09T04:28:55.552Z,47.93
2022-12-09T04:31:22.970Z,43.10
2022-12-09T04:33:50.220Z,42.40
2022-12-09T04:36:18.095Z,40.47
2022-12-09T04:38:45.534Z,47.10
2022-12-09T04:41:13.138Z,50.27
2022-12-09T04:43:40.298Z,48.23
2022-12-09T04:46:08.378Z,54.43
2022-12-09T04:48:35.757Z,48.40
2022-12-09T04:51:03.234Z,47.63
2022-12-09T04:53:30.485Z,52.10
2022-12-09T04:56:01.278Z,51.73
2022-12-09T04:58:28.543Z,48.77
2022-12-09T05:00:56.039Z,50.93
2022-12-09T05:03:23.491Z,59.80
2022-12-09T05:05:51.323Z,56.63
2022-12-09T05:08:18.622Z,60.73
2022-12-09T05:10:46.991Z,58.00
2022-12-09T05:13:14.621Z,58.07
2022-12-09T05:15:42.272Z,50.80
2022-12-09T05:18:09.679Z,51.37
2022-12-09T05:20:38.979Z,55.10
2022-12-09T05:23:09.545Z,53.40
2022-12-09T05:25:37.369Z,44.90
2022-12-09T05:28:05.217Z,40.33
2022-12-09T05:30:32.541Z,41.17
2022-12-09T05:32:59.982Z,42.80
2022-12-09T05:35:27.350Z,51.07
2022-12-09T05:37:54.877Z,52.80
2022-12-09T05:40:22.355Z,62.00
2022-12-09T05:42:49.645Z,72.23
2022-12-09T05:45:17.354Z,75.77
2022-12-09T05:47:44.865Z,116.20
2022-12-09T05:50:12.829Z,123.13
2022-12-09T05:52:40.886Z,180.23
2022-12-09T05:55:08.766Z,135.70
2022-12-09T05:57:36.192Z,81.87
2022-12-09T06:00:06.215Z,87.97
2022-12-09T06:02:34.052Z,106.77
2022-12-09T06:05:01.515Z,106.13
2022-12-09T06:07:29.396Z,101.70
2022-12-09T06:09:57.154Z,106.43
2022-12-09T06:12:24.579Z,103.40
2022-12-09T06:14:52.689Z,103.90
2022-12-09T06:17:20.762Z,109.67
2022-12-09T06:19:48.287Z,103.90
2022-12-09T06:22:15.677Z,107.43
2022-12-09T06:24:42.837Z,110.07
2022-12-09T06:27:10.432Z,99.80
2022-12-09T06:29:37.866Z,93.27
2022-12-09T06:32:05.551Z,95.53
2022-12-09T06:34:32.858Z,100.57
2022-12-09T06:37:00.280Z,97.57
2022-12-09T06:39:27.875Z,101.70
2022-12-09T06:41:55.033Z,96.03
2022-12-09T06:44:24.374Z,89.87
2022-12-09T06:46:52.084Z,89.23
2022-12-09T06:49:19.559Z,117.90
2022-12-09T06:51:47.153Z,104.83
2022-12-09T06:54:14.255Z,110.40
2022-12-09T06:56:41.857Z,108.93
2022-12-09T06:59:09.487Z,114.27
2022-12-09T07:01:36.746Z,106.50
2022-12-09T07:04:04.448Z,107.73
2022-12-09T07:06:32.010Z,116.13
2022-12-09T07:09:00.390Z,112.37
2022-12-09T07:11:28.253Z,114.57
2022-12-09T07:13:55.689Z,149.90
2022-12-09T07:16:23.097Z,127.83
2022-12-09T07:18:50.344Z,125.03
2022-12-09T07:21:18.230Z,130.73
2022-12-09T07:23:45.586Z,137.60
2022-12-09T07:26:13.257Z,127.50
2022-12-09T07:28:42.712Z,132.57
2022-12-09T07:31:17.806Z,121.93
2022-12-09T07:33:45.379Z,95.87
2022-12-09T07:36:17.600Z,96.10
2022-12-09T07:38:48.299Z,117.53
2022-12-09T07:41:18.808Z,127.33
2022-12-09T07:43:46.899Z,142.50
2022-12-09T07:46:14.950Z,156.83
2022-12-09T07:48:42.524Z,158.77
2022-12-09T07:51:09.800Z,149.23
2022-12-09T07:53:37.330Z,172.13
2022-12-09T07:56:05.413Z,180.77
2022-12-09T07:58:32.818Z,261.60
2022-12-09T08:01:07.575Z,185.07
2022-12-09T08:03:35.035Z,144.57
2022-12-09T08:06:02.562Z,138.63
2022-12-09T08:08:30.199Z,140.30
2022-12-09T08:10:57.776Z,129.27
2022-12-09T08:13:24.919Z,135.47
2022-12-09T08:15:52.293Z,132.57
2022-12-09T08:18:19.648Z,148.07
2022-12-09T08:20:47.141Z,153.00
2022-12-09T08:23:14.432Z,143.47
2022-12-09T08:25:41.828Z,194.83
2022-12-09T08:28:09.511Z,195.53
2022-12-09T08:30:37.249Z,192.70
2022-12-09T08:33:05.048Z,184.63
2022-12-09T08:35:32.556Z,155.67
2022-12-09T08:38:00.186Z,85.13
2022-12-09T08:40:27.937Z,79.07
2022-12-09T08:42:55.565Z,48.77
2022-12-09T08:45:23.034Z,46.57
2022-12-09T08:47:50.914Z,52.77
2022-12-09T08:50:19.057Z,47.53
2022-12-09T08:52:46.460Z,41.73
2022-12-09T08:55:13.963Z,44.87
2022-12-09T08:57:41.218Z,68.40
2022-12-09T09:00:09.313Z,58.47
2022-12-09T09:02:36.809Z,53.00
2022-12-09T09:05:05.119Z,55.77
2022-12-09T09:07:32.912Z,60.73
2022-12-09T09:10:01.522Z,58.00
2022-12-09T09:12:29.203Z,54.13
2022-12-09T09:14:56.755Z,42.43
2022-12-09T09:17:24.707Z,42.90
2022-12-09T09:19:52.396Z,36.00
2022-12-09T09:22:19.715Z,41.93
2022-12-09T09:24:47.006Z,38.97
2022-12-09T09:27:14.212Z,36.57
2022-12-09T09:29:41.809Z,34.87
2022-12-09T09:32:09.247Z,35.33
2022-12-09T09:34:36.993Z,40.60
2022-12-09T09:37:04.284Z,50.93
2022-12-09T09:39:31.549Z,41.87
2022-12-09T09:42:06.230Z,39.00
2022-12-09T09:44:36.040Z,45.57
2022-12-09T09:47:04.506Z,41.33
2022-12-09T09:49:36.937Z,52.80
2022-12-09T09:52:07.284Z,138.47
2022-12-09T09:54:34.556Z,60.70
2022-12-09T09:57:04.395Z,40.17
2022-12-09T09:59:34.966Z,35.60
2022-12-09T10:02:22.861Z,27.40
2022-12-09T10:04:50.779Z,23.73
2022-12-09T10:07:18.234Z,26.73
2022-12-09T10:09:51.884Z,28.67
2022-12-09T10:12:51.668Z,28.43
2022-12-09T10:15:20.623Z,36.17
2022-12-09T10:17:53.272Z,29.48
2022-12-09T10:20:22.460Z,28.60
2022-12-09T10:22:54.393Z,25.75
2022-12-09T10:25:23.964Z,20.63
2022-12-09T10:27:53.401Z,21.65
2022-12-09T10:30:20.725Z,18.58
2022-12-09T10:32:48.384Z,28.25
2022-12-09T10:35:20.024Z,30.83
2022-12-09T10:37:48.514Z,23.08
2022-12-09T10:40:18.016Z,15.98
2022-12-09T10:43:08.096Z,16.08
2022-12-09T10:46:08.402Z,26.92
2022-12-09T10:48:32.751Z,21.60
2022-12-09T10:51:05.061Z,8.15
2022-12-09T10:53:32.598Z,13.23
2022-12-09T10:56:00.393Z,14.73
2022-12-09T10:58:28.370Z,12.75
2022-12-09T11:00:58.570Z,16.90
2022-12-09T11:03:27.939Z,14.38
2022-12-09T11:05:59.172Z,15.55
2022-12-09T11:08:26.482Z,17.83
2022-12-09T11:10:54.433Z,24.30
2022-12-09T11:13:22.365Z,26.52
2022-12-09T11:15:54.458Z,23.95
2022-12-09T11:18:26.794Z,22.88
2022-12-09T11:20:56.134Z,23.48
2022-12-09T11:23:23.820Z,20.73
2022-12-09T11:25:57.747Z,29.50
2022-12-09T11:28:35.174Z,23.70
2022-12-09T11:31:33.304Z,19.45
2022-12-09T11:34:05.471Z,21.02
2022-12-09T11:36:37.009Z,19.08
2022-12-09T11:39:16.171Z,25.20
2022-12-09T11:42:05.362Z,21.65
2022-12-09T11:44:32.726Z,23.95
2022-12-09T11:47:10.558Z,34.05
2022-12-09T11:49:49.954Z,24.05
2022-12-09T11:52:17.094Z,25.00
2022-12-09T11:54:54.578Z,21.52
2022-12-09T11:57:23.899Z,22.95
2022-12-09T11:59:52.381Z,21.63
2022-12-09T12:02:22.860Z,15.43
2022-12-09T12:04:53.078Z,23.05
2022-12-09T12:07:22.426Z,23.52
2022-12-09T12:09:49.504Z,21.75
2022-12-09T12:12:22.393Z,57.97
2022-12-09T12:14:49.464Z,46.07
2022-12-09T12:17:25.524Z,52.60
2022-12-09T12:19:53.009Z,36.83
2022-12-09T12:22:24.229Z,32.95
2022-12-09T12:25:17.083Z,26.88
2022-12-09T12:27:51.784Z,22.40
2022-12-09T12:30:22.841Z,18.98
2022-12-09T12:33:53.002Z,21.92
2022-12-09T12:35:51.016Z,21.05
2022-12-09T12:38:18.081Z,19.65
2022-12-09T12:40:51.308Z,25.55
2022-12-09T12:43:46.046Z,25.65
2022-12-09T12:46:25.164Z,35.80
2022-12-09T12:49:00.062Z,92.93
2022-12-09T12:51:33.765Z,40.70
2022-12-09T12:54:05.996Z,35.67
2022-12-09T12:56:47.930Z,41.03
2022-12-09T12:59:22.690Z,128.13
2022-12-09T13:02:01.386Z,68.70
2022-12-09T13:04:29.987Z,61.00
2022-12-09T13:07:07.516Z,111.40
2022-12-09T13:09:37.762Z,53.50
2022-12-09T13:12:15.061Z,57.07
2022-12-09T13:14:50.235Z,58.05
2022-12-09T13:17:19.028Z,63.30
2022-12-09T13:19:53.060Z,25.90
2022-12-09T13:22:25.601Z,40.83
2022-12-09T13:25:00.095Z,52.10
2022-12-09T13:27:38.854Z,33.47
2022-12-09T13:30:22.462Z,34.80
2022-12-09T13:33:08.548Z,19.13
2022-12-09T13:35:43.586Z,16.00
2022-12-09T13:38:29.388Z,19.17
2022-12-09T13:40:56.487Z,17.20
2022-12-09T13:43:27.532Z,19.00
2022-12-09T13:45:55.637Z,17.33
2022-12-09T13:48:22.740Z,37.70
2022-12-09T13:50:49.830Z,21.50
2022-12-09T13:53:20.150Z,17.63
2022-12-09T13:55:50.447Z,25.00
2022-12-09T13:58:28.211Z,33.17
2022-12-09T14:01:13.747Z,33.53
2022-12-09T14:03:50.022Z,22.70
2022-12-09T14:06:19.590Z,28.48
2022-12-09T14:08:47.825Z,22.98
2022-12-09T14:11:50.615Z,23.40
2022-12-09T14:14:23.655Z,23.27
2022-12-09T14:16:51.260Z,26.93
2022-12-09T14:19:24.547Z,28.63
2022-12-09T14:22:17.353Z,19.37
2022-12-09T14:24:45.000Z,23.13
2022-12-09T14:27:13.544Z,36.70
2022-12-09T14:29:43.415Z,29.73
2022-12-09T14:32:18.910Z,31.20
2022-12-09T14:34:46.046Z,35.50
2022-12-09T14:37:42.694Z,25.57
2022-12-09T14:40:15.765Z,21.47
2022-12-09T14:42:48.973Z,26.33
2022-12-09T14:45:24.826Z,29.70
2022-12-09T14:47:51.919Z,30.23
2022-12-09T14:50:19.820Z,45.30
2022-12-09T14:53:05.540Z,38.43
2022-12-09T14:55:33.844Z,44.77
2022-12-09T14:58:01.163Z,54.50
2022-12-09T15:00:28.426Z,38.83
2022-12-09T15:03:30.578Z,42.97
2022-12-09T15:05:53.733Z,41.57
2022-12-09T15:08:34.476Z,105.90
2022-12-09T15:11:02.703Z,62.57
2022-12-09T15:13:29.830Z,61.33
2022-12-09T15:15:56.985Z,49.97
2022-12-09T15:18:24.755Z,52.53
2022-12-09T15:20:55.583Z,57.10
2022-12-09T15:23:28.934Z,58.83
2022-12-09T15:25:56.879Z,53.83
2022-12-09T15:28:26.805Z,52.27
2022-12-09T15:30:58.563Z,50.17
2022-12-09T15:33:25.764Z,47.57
2022-12-09T15:36:22.478Z,42.33
2022-12-09T15:38:52.745Z,47.03
2022-12-09T15:41:38.594Z,42.93
2022-12-09T15:44:07.470Z,67.00
2022-12-09T15:46:34.586Z,88.93
2022-12-09T15:49:01.997Z,86.10
2022-12-09T15:51:29.088Z,87.80
2022-12-09T15:54:03.210Z,72.33
2022-12-09T15:56:34.916Z,128.73
2022-12-09T15:59:05.469Z,140.40
2022-12-09T16:01:33.855Z,78.13
2022-12-09T16:04:02.365Z,68.07
2022-12-09T16:06:30.501Z,47.77
2022-12-09T16:08:57.630Z,47.97
2022-12-09T16:11:40.861Z,112.00
2022-12-09T16:14:08.501Z,146.33
2022-12-09T16:16:41.550Z,128.30
2022-12-09T16:19:45.310Z,99.23
2022-12-09T16:22:15.360Z,125.30
2022-12-09T16:27:34.413Z,88.97
2022-12-09T16:30:20.587Z,77.57
2022-12-09T16:32:48.255Z,338.07
2022-12-09T16:35:35.604Z,191.50
2022-12-09T16:38:11.570Z,137.97
2022-12-09T16:40:44.481Z,172.97
2022-12-09T16:43:17.575Z,221.20
2022-12-09T16:45:45.289Z,175.83
2022-12-09T16:48:13.387Z,190.27
2022-12-09T16:50:42.617Z,173.57
2022-12-09T16:53:17.212Z,186.83
2022-12-09T16:55:59.702Z,137.33
2022-12-09T16:58:27.523Z,205.23
2022-12-09T17:00:54.675Z,245.77
2022-12-09T17:03:21.866Z,223.87
2022-12-09T17:05:49.013Z,156.23
2022-12-09T17:08:16.209Z,95.13
2022-12-09T17:10:43.444Z,154.70
2022-12-09T17:13:11.900Z,95.57
2022-12-09T17:15:40.675Z,113.07
2022-12-09T17:18:07.854Z,84.03
2022-12-09T17:20:34.959Z,86.30
2022-12-09T17:23:02.101Z,234.13
2022-12-09T17:25:32.910Z,79.60
2022-12-09T17:28:03.296Z,187.53
2022-12-09T17:30:30.481Z,95.53
2022-12-09T17:32:59.043Z,70.67
2022-12-09T17:35:27.158Z,81.70
2022-12-09T17:37:54.314Z,74.23
2022-12-09T17:40:21.498Z,51.43
2022-12-09T17:42:48.594Z,64.07
2022-12-09T17:45:15.725Z,54.40
2022-12-09T17:47:42.857Z,69.97
2022-12-09T17:50:10.916Z,60.20
2022-12-09T17:52:38.249Z,64.73
2022-12-09T17:55:06.691Z,57.07
2022-12-09T17:57:34.069Z,54.63
2022-12-09T18:00:01.208Z,63.30
2022-12-09T18:02:28.434Z,64.80
2022-12-09T18:04:55.598Z,53.67
2022-12-09T18:07:22.710Z,55.47
2022-12-09T18:09:54.349Z,46.17
2022-12-09T18:12:21.824Z,41.33
2022-12-09T18:14:48.920Z,38.87
2022-12-09T18:17:16.067Z,41.97
2022-12-09T18:19:43.240Z,49.87
2022-12-09T18:22:10.344Z,49.30
2022-12-09T18:24:37.456Z,46.13
2022-12-09T18:27:04.585Z,56.90
2022-12-09T18:29:31.746Z,58.30
2022-12-09T18:31:59.258Z,60.50
2022-12-09T18:34:26.952Z,80.63
2022-12-09T18:36:54.124Z,84.23
2022-12-09T18:39:21.322Z,85.67
2022-12-09T18:41:48.475Z,77.23
2022-12-09T18:44:15.953Z,83.80
2022-12-09T18:46:46.888Z,125.00
2022-12-09T18:49:14.832Z,130.67
2022-12-09T18:51:42.250Z,126.70
2022-12-09T18:54:09.456Z,115.13
2022-12-09T18:56:36.974Z,100.10
2022-12-09T18:59:07.104Z,89.73
2022-12-09T19:01:35.732Z,90.73
2022-12-09T19:04:03.415Z,61.37
2022-12-09T19:06:32.807Z,69.07
2022-12-09T19:09:02.028Z,59.87
2022-12-09T19:11:29.808Z,50.10
2022-12-09T19:13:56.986Z,62.10
2022-12-09T19:16:24.437Z,47.47
2022-12-09T19:18:53.574Z,49.70
2022-12-09T19:21:21.150Z,53.67
2022-12-09T19:23:48.643Z,39.40
2022-12-09T19:26:16.662Z,46.93
2022-12-09T19:28:47.425Z,43.47
2022-12-09T19:31:18.777Z,54.07
2022-12-09T19:33:45.944Z,52.30
2022-12-09T19:36:13.109Z,45.40
2022-12-09T19:38:40.364Z,47.80
2022-12-09T19:41:07.590Z,37.37
2022-12-09T19:43:34.846Z,28.40
2022-12-09T19:46:05.916Z,30.00
2022-12-09T19:48:35.021Z,43.03
2022-12-09T19:51:06.084Z,56.07
2022-12-09T19:53:33.280Z,74.67
2022-12-09T19:56:01.714Z,72.73
2022-12-09T19:58:29.354Z,93.70
2022-12-09T20:00:56.458Z,57.53
2022-12-09T20:03:23.698Z,45.10
2022-12-09T20:05:53.652Z,52.13
2022-12-09T20:08:20.979Z,51.73
2022-12-09T20:10:48.281Z,43.80
2022-12-09T20:13:15.631Z,38.00
2022-12-09T20:15:43.000Z,48.07
2022-12-09T20:18:10.165Z,57.63
2022-12-09T20:20:37.811Z,58.60
2022-12-09T20:23:04.921Z,66.27
2022-12-09T20:25:33.408Z,60.37
2022-12-09T20:28:00.704Z,52.47
2022-12-09T20:30:28.344Z,50.40
2022-12-09T20:32:55.492Z,49.53
2022-12-09T20:35:22.891Z,56.00
2022-12-09T20:37:50.012Z,51.53
2022-12-09T20:40:17.169Z,48.80
2022-12-09T20:42:44.329Z,47.03
2022-12-09T20:45:11.761Z,43.40
2022-12-09T20:47:38.858Z,39.10
2022-12-09T20:50:06.668Z,44.67
2022-12-09T20:52:34.014Z,33.93
2022-12-09T20:55:01.116Z,27.10
2022-12-09T20:57:28.381Z,28.63
2022-12-09T20:59:55.482Z,31.73
2022-12-09T21:02:22.587Z,31.73
2022-12-09T21:04:51.128Z,34.87
2022-12-09T21:07:18.237Z,40.80
2022-12-09T21:09:45.963Z,43.50
2022-12-09T21:12:13.395Z,45.30
2022-12-09T21:14:40.773Z,37.80
2022-12-09T21:17:08.852Z,37.93
2022-12-09T21:19:36.087Z,38.20
2022-12-09T21:22:04.025Z,33.53
2022-12-09T21:24:31.177Z,39.13
2022-12-09T21:26:58.427Z,35.03
2022-12-09T21:29:31.230Z,39.00
2022-12-09T21:31:59.024Z,38.87
2022-12-09T21:34:27.161Z,35.63
2022-12-09T21:36:54.304Z,34.63
2022-12-09T21:39:21.504Z,35.10
2022-12-09T21:41:48.613Z,34.73
2022-12-09T21:44:16.914Z,34.67
2022-12-09T21:46:44.150Z,39.83
2022-12-09T21:49:11.748Z,48.40
2022-12-09T21:51:38.911Z,38.87
2022-12-09T21:54:06.148Z,49.13
2022-12-09T21:56:35.023Z,45.00
2022-12-09T21:59:02.306Z,37.77
2022-12-09T22:01:36.539Z,36.90
2022-12-09T22:04:04.393Z,34.67
2022-12-09T22:06:31.569Z,29.60
2022-12-09T22:08:59.662Z,27.57
2022-12-09T22:11:27.612Z,27.23
2022-12-09T22:13:56.219Z,27.00
2022-12-09T22:16:24.075Z,28.37
2022-12-09T22:18:51.518Z,29.63
2022-12-09T22:21:25.093Z,27.60
2022-12-09T22:23:56.240Z,29.47
2022-12-09T22:26:23.469Z,29.80
2022-12-09T22:28:50.602Z,26.60
2022-12-09T22:31:18.782Z,27.03
2022-12-09T22:33:45.969Z,36.67
2022-12-09T22:36:13.258Z,53.93
2022-12-09T22:38:40.835Z,51.13
2022-12-09T22:41:12.249Z,30.57
2022-12-09T22:43:39.370Z,37.47
2022-12-09T22:46:17.983Z,40.37
2022-12-09T22:48:45.167Z,26.17
2022-12-09T22:51:15.791Z,25.43
2022-12-09T22:53:42.909Z,19.87
2022-12-09T22:56:10.548Z,50.90
2022-12-09T22:58:37.733Z,52.10
2022-12-09T23:01:11.956Z,59.23
2022-12-09T23:03:39.152Z,59.50
2022-12-09T23:06:06.622Z,60.40
2022-12-09T23:08:33.869Z,60.33
2022-12-09T23:11:04.569Z,76.57
2022-12-09T23:13:36.166Z,77.20
2022-12-09T23:16:06.572Z,65.80
2022-12-09T23:18:34.008Z,38.73
2022-12-09T23:21:10.114Z,26.57
2022-12-09T23:23:37.296Z,55.47
2022-12-09T23:26:05.060Z,50.87
2022-12-09T23:28:32.793Z,38.50
2022-12-09T23:31:02.351Z,47.60
2022-12-09T23:33:29.461Z,77.27
2022-12-09T23:35:56.728Z,96.20
2022-12-09T23:38:23.832Z,81.43
2022-12-09T23:40:53.708Z,104.63
2022-12-09T23:43:21.091Z,104.63
2022-12-09T23:45:48.240Z,81.83
2022-12-09T23:48:15.360Z,47.50
2022-12-09T23:50:42.864Z,46.97
2022-12-09T23:53:10.017Z,48.60
2022-12-09T23:55:41.822Z,31.70
2022-12-09T23:58:09.073Z,35.63
